Vicco, Kentucky
Current Conditions -  °F | °C
As of 9:53 PM on Friday 28 Nov 2014 (Local Time) from KJKL Reporting Station
Clear Clear  
Wind Chill: 27°   Ceiling: Unl
Heat Index: 32°   Visibility: 10mi
Dew Point: 16°   Wind: 5mph
Humidity: 52%   Direction: 170°S
Pressure: 30.15"   Gusts: NA
Location:  37.22°N, 83.06°W
Report Text: KJKL 290253Z AUTO 17004KT 10SM CLR 00/M09 A3015 RMK AO2 SLP219 T00001089 58020
Loading
Personal Weather Stations






























Interactive Weather Map New forecast layout! Learn more

10-Day Weather Forecast

Advertisements
Track Severe Weather on mobile